sensor_id;sensor_type;location;lat;lon;timestamp;P1;durP1;ratioP1;P2;durP2;ratioP2
56760;SDS011;42633;44.494;11.356;2023-02-01T00:01:54;6.82;;;3.22;;
56760;SDS011;42633;44.494;11.356;2023-02-01T00:04:58;6.93;;;3.53;;
56760;SDS011;42633;44.494;11.356;2023-02-01T00:08:02;8.50;;;3.40;;
56760;SDS011;42633;44.494;11.356;2023-02-01T00:11:07;7.60;;;3.42;;
56760;SDS011;42633;44.494;11.356;2023-02-01T00:14:13;6.35;;;3.22;;
56760;SDS011;42633;44.494;11.356;2023-02-01T00:17:17;6.22;;;3.38;;
56760;SDS011;42633;44.494;11.356;2023-02-01T00:20:20;8.50;;;3.47;;
56760;SDS011;42633;44.494;11.356;2023-02-01T00:23:24;7.28;;;3.42;;
56760;SDS011;42633;44.494;11.356;2023-02-01T00:26:36;7.85;;;3.80;;
56760;SDS011;42633;44.494;11.356;2023-02-01T00:29:47;6.68;;;3.67;;
56760;SDS011;42633;44.494;11.356;2023-02-01T00:32:51;6.53;;;3.10;;
56760;SDS011;42633;44.494;11.356;2023-02-01T00:35:59;4.50;;;3.10;;
56760;SDS011;42633;44.494;11.356;2023-02-01T00:39:04;5.88;;;3.53;;
56760;SDS011;42633;44.494;11.356;2023-02-01T00:42:08;5.90;;;3.38;;
56760;SDS011;42633;44.494;11.356;2023-02-01T00:45:13;5.55;;;2.92;;
56760;SDS011;42633;44.494;11.356;2023-02-01T00:48:17;11.20;;;6.40;;
56760;SDS011;42633;44.494;11.356;2023-02-01T00:51:22;6.45;;;3.00;;
56760;SDS011;42633;44.494;11.356;2023-02-01T00:54:28;6.80;;;3.30;;
56760;SDS011;42633;44.494;11.356;2023-02-01T00:57:32;6.00;;;3.10;;
56760;SDS011;42633;44.494;11.356;2023-02-01T01:00:36;6.13;;;3.15;;
56760;SDS011;42633;44.494;11.356;2023-02-01T01:03:41;5.85;;;3.00;;
56760;SDS011;42633;44.494;11.356;2023-02-01T01:06:47;9.25;;;3.40;;
56760;SDS011;42633;44.494;11.356;2023-02-01T01:09:51;6.13;;;3.20;;
56760;SDS011;42633;44.494;11.356;2023-02-01T01:12:55;7.13;;;3.42;;
56760;SDS011;42633;44.494;11.356;2023-02-01T01:16:00;4.45;;;3.15;;
56760;SDS011;42633;44.494;11.356;2023-02-01T01:19:05;6.40;;;3.22;;
56760;SDS011;42633;44.494;11.356;2023-02-01T01:22:10;6.35;;;2.83;;
56760;SDS011;42633;44.494;11.356;2023-02-01T01:25:14;11.05;;;3.38;;
56760;SDS011;42633;44.494;11.356;2023-02-01T01:28:18;5.60;;;2.95;;
56760;SDS011;42633;44.494;11.356;2023-02-01T01:31:22;5.70;;;3.15;;
56760;SDS011;42633;44.494;11.356;2023-02-01T01:34:27;5.18;;;2.88;;
56760;SDS011;42633;44.494;11.356;2023-02-01T01:37:31;4.47;;;3.00;;
56760;SDS011;42633;44.494;11.356;2023-02-01T01:40:35;9.32;;;3.63;;
56760;SDS011;42633;44.494;11.356;2023-02-01T01:47:34;7.60;;;3.85;;
56760;SDS011;42633;44.494;11.356;2023-02-01T01:50:48;7.03;;;3.00;;
56760;SDS011;42633;44.494;11.356;2023-02-01T01:54:01;8.32;;;3.22;;
56760;SDS011;42633;44.494;11.356;2023-02-01T01:57:30;5.63;;;3.30;;
56760;SDS011;42633;44.494;11.356;2023-02-01T02:00:39;7.18;;;4.15;;
56760;SDS011;42633;44.494;11.356;2023-02-01T02:03:44;6.20;;;3.28;;
56760;SDS011;42633;44.494;11.356;2023-02-01T02:06:55;10.40;;;3.35;;
56760;SDS011;42633;44.494;11.356;2023-02-01T02:10:08;5.53;;;2.92;;
56760;SDS011;42633;44.494;11.356;2023-02-01T02:13:17;7.07;;;3.50;;
56760;SDS011;42633;44.494;11.356;2023-02-01T02:40:46;6.35;;;3.58;;
56760;SDS011;42633;44.494;11.356;2023-02-01T02:43:59;7.53;;;3.38;;
56760;SDS011;42633;44.494;11.356;2023-02-01T02:54:29;8.00;;;3.80;;
56760;SDS011;42633;44.494;11.356;2023-02-01T02:57:56;8.93;;;3.30;;
56760;SDS011;42633;44.494;11.356;2023-02-01T03:01:20;8.88;;;4.13;;
56760;SDS011;42633;44.494;11.356;2023-02-01T03:04:42;8.48;;;3.50;;
56760;SDS011;42633;44.494;11.356;2023-02-01T03:14:08;7.72;;;3.60;;
56760;SDS011;42633;44.494;11.356;2023-02-01T03:17:13;10.00;;;4.43;;
56760;SDS011;42633;44.494;11.356;2023-02-01T03:20:20;17.25;;;4.78;;
56760;SDS011;42633;44.494;11.356;2023-02-01T03:23:27;8.15;;;4.25;;
56760;SDS011;42633;44.494;11.356;2023-02-01T03:26:38;9.30;;;4.40;;
56760;SDS011;42633;44.494;11.356;2023-02-01T03:29:48;9.18;;;4.40;;
56760;SDS011;42633;44.494;11.356;2023-02-01T03:36:09;13.68;;;4.85;;
56760;SDS011;42633;44.494;11.356;2023-02-01T03:39:44;10.27;;;3.97;;
56760;SDS011;42633;44.494;11.356;2023-02-01T03:42:56;11.57;;;4.32;;
56760;SDS011;42633;44.494;11.356;2023-02-01T03:46:06;8.63;;;4.25;;
56760;SDS011;42633;44.494;11.356;2023-02-01T03:49:18;9.40;;;4.22;;
56760;SDS011;42633;44.494;11.356;2023-02-01T03:53:17;8.38;;;4.72;;
56760;SDS011;42633;44.494;11.356;2023-02-01T03:55:58;10.55;;;4.10;;
56760;SDS011;42633;44.494;11.356;2023-02-01T03:59:02;9.80;;;5.03;;
56760;SDS011;42633;44.494;11.356;2023-02-01T04:02:11;12.13;;;4.85;;
56760;SDS011;42633;44.494;11.356;2023-02-01T04:05:15;17.33;;;5.40;;
56760;SDS011;42633;44.494;11.356;2023-02-01T04:08:27;13.68;;;5.05;;
56760;SDS011;42633;44.494;11.356;2023-02-01T04:11:31;10.00;;;4.38;;
56760;SDS011;42633;44.494;11.356;2023-02-01T04:14:35;11.48;;;4.78;;
56760;SDS011;42633;44.494;11.356;2023-02-01T04:17:39;11.65;;;4.60;;
56760;SDS011;42633;44.494;11.356;2023-02-01T04:20:43;13.25;;;4.78;;
56760;SDS011;42633;44.494;11.356;2023-02-01T04:23:48;10.68;;;5.57;;
56760;SDS011;42633;44.494;11.356;2023-02-01T04:26:52;8.98;;;4.28;;
56760;SDS011;42633;44.494;11.356;2023-02-01T04:29:56;15.30;;;4.85;;
56760;SDS011;42633;44.494;11.356;2023-02-01T04:33:00;8.23;;;4.50;;
56760;SDS011;42633;44.494;11.356;2023-02-01T04:36:07;14.23;;;4.75;;
56760;SDS011;42633;44.494;11.356;2023-02-01T04:39:11;7.53;;;4.15;;
56760;SDS011;42633;44.494;11.356;2023-02-01T04:42:15;8.73;;;3.95;;
56760;SDS011;42633;44.494;11.356;2023-02-01T04:45:19;11.77;;;4.45;;
56760;SDS011;42633;44.494;11.356;2023-02-01T04:48:23;14.90;;;5.35;;
56760;SDS011;42633;44.494;11.356;2023-02-01T04:51:27;16.63;;;6.07;;
56760;SDS011;42633;44.494;11.356;2023-02-01T04:54:31;17.58;;;6.28;;
56760;SDS011;42633;44.494;11.356;2023-02-01T04:57:35;13.75;;;6.45;;
56760;SDS011;42633;44.494;11.356;2023-02-01T05:00:41;18.15;;;6.72;;
56760;SDS011;42633;44.494;11.356;2023-02-01T05:03:45;14.90;;;6.32;;
56760;SDS011;42633;44.494;11.356;2023-02-01T05:06:49;23.73;;;7.40;;
56760;SDS011;42633;44.494;11.356;2023-02-01T05:09:53;20.65;;;7.85;;
56760;SDS011;42633;44.494;11.356;2023-02-01T05:12:57;18.70;;;7.38;;
56760;SDS011;42633;44.494;11.356;2023-02-01T05:16:20;21.58;;;8.02;;
56760;SDS011;42633;44.494;11.356;2023-02-01T05:19:24;28.98;;;7.97;;
56760;SDS011;42633;44.494;11.356;2023-02-01T05:22:28;22.33;;;7.40;;
56760;SDS011;42633;44.494;11.356;2023-02-01T05:25:31;17.27;;;7.30;;
56760;SDS011;42633;44.494;11.356;2023-02-01T05:28:35;17.20;;;7.22;;
56760;SDS011;42633;44.494;11.356;2023-02-01T05:31:39;18.45;;;6.30;;
56760;SDS011;42633;44.494;11.356;2023-02-01T05:34:43;25.67;;;6.80;;
56760;SDS011;42633;44.494;11.356;2023-02-01T05:37:47;37.67;;;8.10;;
56760;SDS011;42633;44.494;11.356;2023-02-01T05:40:52;21.33;;;8.68;;
56760;SDS011;42633;44.494;11.356;2023-02-01T05:43:55;15.23;;;7.35;;
56760;SDS011;42633;44.494;11.356;2023-02-01T05:47:00;15.93;;;6.80;;
56760;SDS011;42633;44.494;11.356;2023-02-01T05:50:04;13.38;;;6.88;;
56760;SDS011;42633;44.494;11.356;2023-02-01T05:53:09;17.20;;;6.68;;
56760;SDS011;42633;44.494;11.356;2023-02-01T05:56:12;19.52;;;7.75;;
56760;SDS011;42633;44.494;11.356;2023-02-01T05:59:16;21.90;;;7.40;;
56760;SDS011;42633;44.494;11.356;2023-02-01T06:02:20;24.25;;;7.88;;
56760;SDS011;42633;44.494;11.356;2023-02-01T06:05:25;31.15;;;7.65;;
56760;SDS011;42633;44.494;11.356;2023-02-01T06:08:28;26.42;;;8.40;;
56760;SDS011;42633;44.494;11.356;2023-02-01T06:11:32;19.67;;;6.90;;
56760;SDS011;42633;44.494;11.356;2023-02-01T06:14:36;13.52;;;6.03;;
56760;SDS011;42633;44.494;11.356;2023-02-01T06:17:41;17.33;;;7.00;;
56760;SDS011;42633;44.494;11.356;2023-02-01T06:20:56;12.77;;;5.50;;
56760;SDS011;42633;44.494;11.356;2023-02-01T06:24:03;12.38;;;4.97;;
56760;SDS011;42633;44.494;11.356;2023-02-01T06:27:07;10.75;;;4.60;;
56760;SDS011;42633;44.494;11.356;2023-02-01T06:30:12;11.77;;;5.18;;
56760;SDS011;42633;44.494;11.356;2023-02-01T06:33:17;8.35;;;4.78;;
56760;SDS011;42633;44.494;11.356;2023-02-01T06:36:21;11.85;;;4.70;;
56760;SDS011;42633;44.494;11.356;2023-02-01T06:39:26;12.68;;;6.53;;
56760;SDS011;42633;44.494;11.356;2023-02-01T06:42:32;14.38;;;5.65;;
56760;SDS011;42633;44.494;11.356;2023-02-01T06:45:36;13.00;;;5.70;;
56760;SDS011;42633;44.494;11.356;2023-02-01T06:48:40;16.67;;;6.90;;
56760;SDS011;42633;44.494;11.356;2023-02-01T06:51:44;18.77;;;6.70;;
56760;SDS011;42633;44.494;11.356;2023-02-01T06:54:48;14.07;;;5.65;;
56760;SDS011;42633;44.494;11.356;2023-02-01T06:57:53;19.33;;;5.45;;
56760;SDS011;42633;44.494;11.356;2023-02-01T07:00:58;16.15;;;6.50;;
56760;SDS011;42633;44.494;11.356;2023-02-01T07:04:09;15.27;;;5.97;;
56760;SDS011;42633;44.494;11.356;2023-02-01T07:07:14;20.88;;;6.40;;
56760;SDS011;42633;44.494;11.356;2023-02-01T07:10:19;11.73;;;4.82;;
56760;SDS011;42633;44.494;11.356;2023-02-01T07:13:23;17.10;;;5.93;;
56760;SDS011;42633;44.494;11.356;2023-02-01T07:16:27;17.50;;;6.30;;
56760;SDS011;42633;44.494;11.356;2023-02-01T07:19:32;18.05;;;5.95;;
56760;SDS011;42633;44.494;11.356;2023-02-01T07:22:36;24.73;;;6.45;;
56760;SDS011;42633;44.494;11.356;2023-02-01T07:25:40;17.25;;;7.47;;
56760;SDS011;42633;44.494;11.356;2023-02-01T07:28:44;15.43;;;6.55;;
56760;SDS011;42633;44.494;11.356;2023-02-01T07:31:49;20.73;;;7.18;;
56760;SDS011;42633;44.494;11.356;2023-02-01T07:34:53;15.25;;;7.68;;
56760;SDS011;42633;44.494;11.356;2023-02-01T07:37:57;18.67;;;7.13;;
56760;SDS011;42633;44.494;11.356;2023-02-01T07:41:03;22.70;;;7.10;;
56760;SDS011;42633;44.494;11.356;2023-02-01T07:44:08;36.60;;;9.48;;
56760;SDS011;42633;44.494;11.356;2023-02-01T07:47:12;61.60;;;11.32;;
56760;SDS011;42633;44.494;11.356;2023-02-01T07:50:16;47.85;;;9.30;;
56760;SDS011;42633;44.494;11.356;2023-02-01T07:53:21;17.90;;;6.80;;
56760;SDS011;42633;44.494;11.356;2023-02-01T07:56:25;19.25;;;6.97;;
56760;SDS011;42633;44.494;11.356;2023-02-01T07:59:29;20.40;;;9.25;;
56760;SDS011;42633;44.494;11.356;2023-02-01T08:02:33;52.70;;;13.18;;
56760;SDS011;42633;44.494;11.356;2023-02-01T08:05:38;35.08;;;10.27;;
56760;SDS011;42633;44.494;11.356;2023-02-01T08:08:42;48.15;;;13.60;;
56760;SDS011;42633;44.494;11.356;2023-02-01T08:11:48;30.02;;;11.05;;
56760;SDS011;42633;44.494;11.356;2023-02-01T08:14:52;26.13;;;12.32;;
56760;SDS011;42633;44.494;11.356;2023-02-01T08:17:57;34.03;;;13.25;;
56760;SDS011;42633;44.494;11.356;2023-02-01T08:21:05;44.10;;;15.25;;
56760;SDS011;42633;44.494;11.356;2023-02-01T08:24:11;50.08;;;18.38;;
56760;SDS011;42633;44.494;11.356;2023-02-01T08:27:15;37.72;;;17.52;;
56760;SDS011;42633;44.494;11.356;2023-02-01T08:30:19;34.75;;;17.02;;
56760;SDS011;42633;44.494;11.356;2023-02-01T08:33:25;38.75;;;17.42;;
56760;SDS011;42633;44.494;11.356;2023-02-01T08:36:29;33.22;;;17.05;;
56760;SDS011;42633;44.494;11.356;2023-02-01T08:39:34;46.13;;;18.15;;
56760;SDS011;42633;44.494;11.356;2023-02-01T08:42:40;39.05;;;19.20;;
56760;SDS011;42633;44.494;11.356;2023-02-01T08:45:57;56.92;;;26.05;;
56760;SDS011;42633;44.494;11.356;2023-02-01T08:49:01;40.88;;;19.70;;
56760;SDS011;42633;44.494;11.356;2023-02-01T08:52:05;36.58;;;18.52;;
56760;SDS011;42633;44.494;11.356;2023-02-01T08:55:09;34.78;;;18.17;;
56760;SDS011;42633;44.494;11.356;2023-02-01T08:58:14;36.03;;;16.70;;
56760;SDS011;42633;44.494;11.356;2023-02-01T09:01:21;30.85;;;16.15;;
56760;SDS011;42633;44.494;11.356;2023-02-01T09:04:25;35.38;;;15.80;;
56760;SDS011;42633;44.494;11.356;2023-02-01T09:07:30;37.33;;;16.38;;
56760;SDS011;42633;44.494;11.356;2023-02-01T09:10:36;36.22;;;17.02;;
56760;SDS011;42633;44.494;11.356;2023-02-01T09:13:40;42.20;;;17.90;;
56760;SDS011;42633;44.494;11.356;2023-02-01T09:16:45;40.67;;;17.67;;
56760;SDS011;42633;44.494;11.356;2023-02-01T09:19:49;36.90;;;17.90;;
56760;SDS011;42633;44.494;11.356;2023-02-01T09:22:54;43.00;;;18.13;;
56760;SDS011;42633;44.494;11.356;2023-02-01T09:25:59;40.88;;;19.70;;
56760;SDS011;42633;44.494;11.356;2023-02-01T09:29:04;36.13;;;19.52;;
56760;SDS011;42633;44.494;11.356;2023-02-01T09:32:13;41.20;;;22.13;;
56760;SDS011;42633;44.494;11.356;2023-02-01T09:35:17;37.90;;;20.92;;
56760;SDS011;42633;44.494;11.356;2023-02-01T09:38:22;43.03;;;23.35;;
56760;SDS011;42633;44.494;11.356;2023-02-01T09:48:11;42.85;;;19.48;;
56760;SDS011;42633;44.494;11.356;2023-02-01T09:51:23;27.95;;;13.45;;
56760;SDS011;42633;44.494;11.356;2023-02-01T09:58:37;50.90;;;18.90;;
56760;SDS011;42633;44.494;11.356;2023-02-01T10:01:47;39.70;;;16.88;;
56760;SDS011;42633;44.494;11.356;2023-02-01T10:04:53;34.42;;;16.08;;
56760;SDS011;42633;44.494;11.356;2023-02-01T10:21:31;34.83;;;17.15;;
56760;SDS011;42633;44.494;11.356;2023-02-01T10:24:58;35.80;;;18.50;;
56760;SDS011;42633;44.494;11.356;2023-02-01T10:28:15;41.00;;;19.67;;
56760;SDS011;42633;44.494;11.356;2023-02-01T10:31:22;39.33;;;20.65;;
56760;SDS011;42633;44.494;11.356;2023-02-01T10:34:32;41.85;;;20.83;;
56760;SDS011;42633;44.494;11.356;2023-02-01T10:37:39;45.70;;;22.02;;
56760;SDS011;42633;44.494;11.356;2023-02-01T10:40:47;40.08;;;21.58;;
56760;SDS011;42633;44.494;11.356;2023-02-01T10:43:54;41.95;;;22.65;;
56760;SDS011;42633;44.494;11.356;2023-02-01T10:47:08;37.53;;;21.85;;
56760;SDS011;42633;44.494;11.356;2023-02-01T10:53:57;43.25;;;24.08;;
56760;SDS011;42633;44.494;11.356;2023-02-01T10:57:09;46.90;;;23.50;;
56760;SDS011;42633;44.494;11.356;2023-02-01T11:00:19;45.88;;;24.17;;
56760;SDS011;42633;44.494;11.356;2023-02-01T11:06:35;44.28;;;23.25;;
56760;SDS011;42633;44.494;11.356;2023-02-01T11:09:48;43.33;;;23.30;;
56760;SDS011;42633;44.494;11.356;2023-02-01T11:12:54;43.83;;;23.48;;
56760;SDS011;42633;44.494;11.356;2023-02-01T11:15:59;40.50;;;23.50;;
56760;SDS011;42633;44.494;11.356;2023-02-01T11:19:06;43.57;;;23.87;;
56760;SDS011;42633;44.494;11.356;2023-02-01T11:22:14;44.22;;;22.40;;
56760;SDS011;42633;44.494;11.356;2023-02-01T11:25:35;39.85;;;21.23;;
56760;SDS011;42633;44.494;11.356;2023-02-01T11:29:02;39.05;;;21.00;;
56760;SDS011;42633;44.494;11.356;2023-02-01T11:36:08;33.90;;;19.08;;
56760;SDS011;42633;44.494;11.356;2023-02-01T11:39:58;31.77;;;17.48;;
56760;SDS011;42633;44.494;11.356;2023-02-01T11:43:24;26.35;;;15.75;;
56760;SDS011;42633;44.494;11.356;2023-02-01T11:46:39;25.90;;;16.05;;
56760;SDS011;42633;44.494;11.356;2023-02-01T11:50:12;35.72;;;18.73;;
56760;SDS011;42633;44.494;11.356;2023-02-01T12:04:50;31.67;;;16.33;;
56760;SDS011;42633;44.494;11.356;2023-02-01T12:08:07;31.83;;;17.33;;
56760;SDS011;42633;44.494;11.356;2023-02-01T12:11:29;32.80;;;17.17;;
56760;SDS011;42633;44.494;11.356;2023-02-01T12:18:37;36.35;;;19.45;;
56760;SDS011;42633;44.494;11.356;2023-02-01T12:35:38;34.45;;;19.98;;
56760;SDS011;42633;44.494;11.356;2023-02-01T12:39:08;31.00;;;19.80;;
56760;SDS011;42633;44.494;11.356;2023-02-01T12:42:20;33.72;;;18.08;;
56760;SDS011;42633;44.494;11.356;2023-02-01T12:45:45;35.22;;;17.83;;
56760;SDS011;42633;44.494;11.356;2023-02-01T12:52:55;31.33;;;17.50;;
56760;SDS011;42633;44.494;11.356;2023-02-01T12:56:14;30.13;;;17.38;;
56760;SDS011;42633;44.494;11.356;2023-02-01T12:59:52;34.20;;;18.90;;
56760;SDS011;42633;44.494;11.356;2023-02-01T13:10:12;31.38;;;15.25;;
56760;SDS011;42633;44.494;11.356;2023-02-01T13:13:32;31.83;;;16.50;;
56760;SDS011;42633;44.494;11.356;2023-02-01T13:17:02;36.53;;;18.50;;
56760;SDS011;42633;44.494;11.356;2023-02-01T13:20:15;35.03;;;20.08;;
56760;SDS011;42633;44.494;11.356;2023-02-01T13:23:41;30.52;;;17.73;;
56760;SDS011;42633;44.494;11.356;2023-02-01T13:26:49;29.17;;;16.25;;
56760;SDS011;42633;44.494;11.356;2023-02-01T13:43:39;31.58;;;17.02;;
56760;SDS011;42633;44.494;11.356;2023-02-01T13:46:47;28.92;;;16.52;;
56760;SDS011;42633;44.494;11.356;2023-02-01T13:49:52;29.55;;;15.52;;
56760;SDS011;42633;44.494;11.356;2023-02-01T13:53:00;28.50;;;15.18;;
56760;SDS011;42633;44.494;11.356;2023-02-01T14:03:09;33.58;;;19.45;;
56760;SDS011;42633;44.494;11.356;2023-02-01T14:09:36;26.58;;;15.55;;
56760;SDS011;42633;44.494;11.356;2023-02-01T14:12:44;24.75;;;13.77;;
56760;SDS011;42633;44.494;11.356;2023-02-01T14:19:28;26.50;;;14.77;;
56760;SDS011;42633;44.494;11.356;2023-02-01T14:22:35;27.98;;;14.70;;
56760;SDS011;42633;44.494;11.356;2023-02-01T14:25:39;31.40;;;17.50;;
56760;SDS011;42633;44.494;11.356;2023-02-01T14:29:10;29.48;;;15.55;;
56760;SDS011;42633;44.494;11.356;2023-02-01T14:32:24;37.85;;;18.15;;
56760;SDS011;42633;44.494;11.356;2023-02-01T14:35:33;35.80;;;17.13;;
56760;SDS011;42633;44.494;11.356;2023-02-01T14:38:37;35.42;;;16.35;;
56760;SDS011;42633;44.494;11.356;2023-02-01T14:41:42;26.75;;;15.50;;
56760;SDS011;42633;44.494;11.356;2023-02-01T14:44:50;36.85;;;18.10;;
56760;SDS011;42633;44.494;11.356;2023-02-01T14:51:10;32.33;;;18.20;;
56760;SDS011;42633;44.494;11.356;2023-02-01T14:54:18;28.33;;;16.00;;
56760;SDS011;42633;44.494;11.356;2023-02-01T14:57:24;33.40;;;16.35;;
56760;SDS011;42633;44.494;11.356;2023-02-01T15:00:31;34.25;;;18.70;;
56760;SDS011;42633;44.494;11.356;2023-02-01T15:03:40;28.27;;;15.50;;
56760;SDS011;42633;44.494;11.356;2023-02-01T15:06:54;29.63;;;16.73;;
56760;SDS011;42633;44.494;11.356;2023-02-01T15:13:07;26.58;;;14.80;;
56760;SDS011;42633;44.494;11.356;2023-02-01T15:16:22;35.13;;;16.13;;
56760;SDS011;42633;44.494;11.356;2023-02-01T15:19:29;31.40;;;16.80;;
56760;SDS011;42633;44.494;11.356;2023-02-01T15:22:37;38.47;;;17.52;;
56760;SDS011;42633;44.494;11.356;2023-02-01T15:25:45;30.05;;;17.30;;
56760;SDS011;42633;44.494;11.356;2023-02-01T15:28:50;33.88;;;18.55;;
56760;SDS011;42633;44.494;11.356;2023-02-01T15:31:54;35.72;;;18.98;;
56760;SDS011;42633;44.494;11.356;2023-02-01T15:34:59;39.85;;;18.10;;
56760;SDS011;42633;44.494;11.356;2023-02-01T15:38:18;33.75;;;16.23;;
56760;SDS011;42633;44.494;11.356;2023-02-01T15:41:31;40.13;;;17.90;;
56760;SDS011;42633;44.494;11.356;2023-02-01T15:47:46;40.15;;;18.90;;
56760;SDS011;42633;44.494;11.356;2023-02-01T15:50:54;31.23;;;16.25;;
56760;SDS011;42633;44.494;11.356;2023-02-01T15:54:03;33.75;;;16.50;;
56760;SDS011;42633;44.494;11.356;2023-02-01T15:57:11;27.40;;;16.00;;
56760;SDS011;42633;44.494;11.356;2023-02-01T16:00:24;34.88;;;18.35;;
56760;SDS011;42633;44.494;11.356;2023-02-01T16:03:38;33.38;;;17.13;;
56760;SDS011;42633;44.494;11.356;2023-02-01T16:06:46;40.78;;;19.58;;
56760;SDS011;42633;44.494;11.356;2023-02-01T16:09:58;35.95;;;17.00;;
56760;SDS011;42633;44.494;11.356;2023-02-01T16:13:09;37.03;;;19.25;;
56760;SDS011;42633;44.494;11.356;2023-02-01T16:16:14;33.13;;;16.63;;
56760;SDS011;42633;44.494;11.356;2023-02-01T16:19:19;40.45;;;18.08;;
56760;SDS011;42633;44.494;11.356;2023-02-01T16:22:25;43.38;;;17.05;;
56760;SDS011;42633;44.494;11.356;2023-02-01T16:25:30;42.85;;;15.75;;
56760;SDS011;42633;44.494;11.356;2023-02-01T16:28:34;42.17;;;16.88;;
56760;SDS011;42633;44.494;11.356;2023-02-01T16:31:38;42.88;;;17.27;;
56760;SDS011;42633;44.494;11.356;2023-02-01T16:34:44;38.80;;;16.75;;
56760;SDS011;42633;44.494;11.356;2023-02-01T16:37:49;41.65;;;19.10;;
56760;SDS011;42633;44.494;11.356;2023-02-01T16:40:53;31.27;;;18.35;;
56760;SDS011;42633;44.494;11.356;2023-02-01T16:43:58;38.15;;;20.42;;
56760;SDS011;42633;44.494;11.356;2023-02-01T16:47:02;41.25;;;19.17;;
56760;SDS011;42633;44.494;11.356;2023-02-01T16:50:17;40.00;;;19.52;;
56760;SDS011;42633;44.494;11.356;2023-02-01T16:53:25;40.28;;;20.13;;
56760;SDS011;42633;44.494;11.356;2023-02-01T16:56:33;35.83;;;17.70;;
56760;SDS011;42633;44.494;11.356;2023-02-01T16:59:39;40.53;;;17.73;;
56760;SDS011;42633;44.494;11.356;2023-02-01T17:02:44;40.05;;;18.70;;
56760;SDS011;42633;44.494;11.356;2023-02-01T17:05:50;35.53;;;17.88;;
56760;SDS011;42633;44.494;11.356;2023-02-01T17:08:57;40.28;;;20.60;;
56760;SDS011;42633;44.494;11.356;2023-02-01T17:12:03;43.75;;;20.38;;
56760;SDS011;42633;44.494;11.356;2023-02-01T17:15:08;38.78;;;19.67;;
56760;SDS011;42633;44.494;11.356;2023-02-01T17:18:15;31.13;;;16.80;;
56760;SDS011;42633;44.494;11.356;2023-02-01T17:21:20;36.95;;;18.58;;
56760;SDS011;42633;44.494;11.356;2023-02-01T17:24:26;38.33;;;17.73;;
56760;SDS011;42633;44.494;11.356;2023-02-01T17:30:37;38.95;;;17.75;;
56760;SDS011;42633;44.494;11.356;2023-02-01T17:33:42;47.58;;;19.60;;
56760;SDS011;42633;44.494;11.356;2023-02-01T17:36:50;35.88;;;15.57;;
56760;SDS011;42633;44.494;11.356;2023-02-01T17:39:55;33.05;;;14.60;;
56760;SDS011;42633;44.494;11.356;2023-02-01T17:42:59;33.13;;;13.88;;
56760;SDS011;42633;44.494;11.356;2023-02-01T17:46:21;18.27;;;10.07;;
56760;SDS011;42633;44.494;11.356;2023-02-01T17:49:29;21.20;;;11.13;;
56760;SDS011;42633;44.494;11.356;2023-02-01T17:52:33;23.23;;;9.27;;
56760;SDS011;42633;44.494;11.356;2023-02-01T17:55:43;23.85;;;10.30;;
56760;SDS011;42633;44.494;11.356;2023-02-01T17:58:48;21.90;;;13.52;;
56760;SDS011;42633;44.494;11.356;2023-02-01T18:01:51;23.30;;;11.02;;
56760;SDS011;42633;44.494;11.356;2023-02-01T18:04:59;18.02;;;10.70;;
56760;SDS011;42633;44.494;11.356;2023-02-01T18:08:03;26.92;;;10.82;;
56760;SDS011;42633;44.494;11.356;2023-02-01T18:11:14;32.67;;;14.87;;
56760;SDS011;42633;44.494;11.356;2023-02-01T18:14:19;20.98;;;12.68;;
56760;SDS011;42633;44.494;11.356;2023-02-01T18:17:24;56.60;;;31.33;;
56760;SDS011;42633;44.494;11.356;2023-02-01T18:20:29;25.63;;;15.85;;
56760;SDS011;42633;44.494;11.356;2023-02-01T18:23:34;36.17;;;17.05;;
56760;SDS011;42633;44.494;11.356;2023-02-01T18:26:39;44.95;;;23.83;;
56760;SDS011;42633;44.494;11.356;2023-02-01T18:29:46;61.10;;;25.50;;
56760;SDS011;42633;44.494;11.356;2023-02-01T18:32:52;37.53;;;19.52;;
56760;SDS011;42633;44.494;11.356;2023-02-01T18:35:57;54.20;;;28.40;;
56760;SDS011;42633;44.494;11.356;2023-02-01T18:39:02;34.15;;;18.55;;
56760;SDS011;42633;44.494;11.356;2023-02-01T18:42:07;44.95;;;25.70;;
56760;SDS011;42633;44.494;11.356;2023-02-01T18:48:43;46.45;;;24.95;;
56760;SDS011;42633;44.494;11.356;2023-02-01T18:51:47;57.08;;;31.60;;
56760;SDS011;42633;44.494;11.356;2023-02-01T18:54:54;48.85;;;23.13;;
56760;SDS011;42633;44.494;11.356;2023-02-01T18:57:59;36.65;;;21.52;;
56760;SDS011;42633;44.494;11.356;2023-02-01T19:01:07;52.33;;;26.13;;
56760;SDS011;42633;44.494;11.356;2023-02-01T19:04:12;54.10;;;30.70;;
56760;SDS011;42633;44.494;11.356;2023-02-01T19:07:16;57.35;;;31.75;;
56760;SDS011;42633;44.494;11.356;2023-02-01T19:10:21;60.58;;;31.17;;
56760;SDS011;42633;44.494;11.356;2023-02-01T19:13:26;44.00;;;23.75;;
56760;SDS011;42633;44.494;11.356;2023-02-01T19:16:33;45.10;;;25.83;;
56760;SDS011;42633;44.494;11.356;2023-02-01T19:19:42;42.47;;;22.20;;
56760;SDS011;42633;44.494;11.356;2023-02-01T19:22:47;48.80;;;29.73;;
56760;SDS011;42633;44.494;11.356;2023-02-01T19:25:52;43.00;;;22.73;;
56760;SDS011;42633;44.494;11.356;2023-02-01T19:28:59;43.72;;;21.67;;
56760;SDS011;42633;44.494;11.356;2023-02-01T19:32:03;54.80;;;26.40;;
56760;SDS011;42633;44.494;11.356;2023-02-01T19:35:08;60.80;;;32.40;;
56760;SDS011;42633;44.494;11.356;2023-02-01T19:41:20;74.00;;;44.67;;
56760;SDS011;42633;44.494;11.356;2023-02-01T19:44:24;103.90;;;58.88;;
56760;SDS011;42633;44.494;11.356;2023-02-01T19:47:31;48.65;;;27.27;;
56760;SDS011;42633;44.494;11.356;2023-02-01T19:50:35;54.63;;;30.75;;
56760;SDS011;42633;44.494;11.356;2023-02-01T19:53:39;42.65;;;24.23;;
56760;SDS011;42633;44.494;11.356;2023-02-01T19:56:43;51.53;;;27.83;;
56760;SDS011;42633;44.494;11.356;2023-02-01T19:59:48;47.83;;;25.23;;
56760;SDS011;42633;44.494;11.356;2023-02-01T20:02:52;49.20;;;24.48;;
56760;SDS011;42633;44.494;11.356;2023-02-01T20:05:57;41.30;;;23.10;;
56760;SDS011;42633;44.494;11.356;2023-02-01T20:09:02;43.83;;;23.63;;
56760;SDS011;42633;44.494;11.356;2023-02-01T20:12:08;53.85;;;26.83;;
56760;SDS011;42633;44.494;11.356;2023-02-01T20:15:13;43.72;;;23.48;;
56760;SDS011;42633;44.494;11.356;2023-02-01T20:18:17;37.53;;;20.58;;
56760;SDS011;42633;44.494;11.356;2023-02-01T20:21:21;33.35;;;20.65;;
56760;SDS011;42633;44.494;11.356;2023-02-01T20:24:26;38.20;;;21.92;;
56760;SDS011;42633;44.494;11.356;2023-02-01T20:27:30;46.92;;;22.38;;
56760;SDS011;42633;44.494;11.356;2023-02-01T20:30:34;43.47;;;20.20;;
56760;SDS011;42633;44.494;11.356;2023-02-01T20:33:38;40.28;;;20.48;;
56760;SDS011;42633;44.494;11.356;2023-02-01T20:36:42;38.17;;;20.80;;
56760;SDS011;42633;44.494;11.356;2023-02-01T20:39:46;41.90;;;19.25;;
56760;SDS011;42633;44.494;11.356;2023-02-01T20:42:50;39.28;;;19.83;;
56760;SDS011;42633;44.494;11.356;2023-02-01T20:45:54;37.45;;;19.70;;
56760;SDS011;42633;44.494;11.356;2023-02-01T20:48:59;35.70;;;18.27;;
56760;SDS011;42633;44.494;11.356;2023-02-01T20:52:03;38.38;;;19.48;;
56760;SDS011;42633;44.494;11.356;2023-02-01T20:55:07;33.30;;;18.45;;
56760;SDS011;42633;44.494;11.356;2023-02-01T20:58:12;33.67;;;18.73;;